KMLU/MLU METAR and TAF weather

Enter ICAO airport designator
Station Type Date Time Source
KMLU METAR 2022/01/26 06:53 UTC NOAA

KMLU 260653Z AUTO 02010KT 10SM CLR 01/M06 A3034 RMK AO2 SLP274 T00061061


Station Type Date Time Source
KMLU Decoded METAR 2022/01/26 06:53 UTC NOAA

MONROE REGIONAL AIRPORT, LA, United States (KMLU) 32-31N 092-02W 29M
Jan 26, 2022 - 01:53 AM EST / 2022.01.26 0653 UTC
Wind: from the NNE (020 degrees) at 12 MPH (10 KT):0
Visibility: 10 mile(s):0
Sky conditions: clear
Temperature: 33.1 F (0.6 C)
Windchill: 24 F (-4 C):1
Dew Point: 21.0 F (-6.1 C)
Relative Humidity: 60%
Pressure (altimeter): 30.34 in. Hg (1027 hPa)
ob: KMLU 260653Z AUTO 02010KT 10SM CLR 01/M06 A3034 RMK AO2 SLP274 T00061061
cycle: 7

Station Type Date Time Source
KMLU TAF 2022/01/26 06:22 UTC NOAA

TAF KMLU 260520Z 2606/2706 03012KT P6SM SKC
FM261500 03012KT P6SM SKC
FM261800 04011G16KT P6SM SKC
FM261900 05010KT P6SM FEW250

Example: see airport list